Time;durP1;ratioP1;P1;durP2;ratioP2;P2;SDS_P1;SDS_P2;PMS_P1;PMS_P2;Temp;Humidity;BMP_temperature;BMP_pressure;BME280_temperature;BME280_humidity;BME280_pressure;Samples;Min_cycle;Max_cycle;Signal;HPM_P1;HPM_P2
2023/09/17 00:02:20;;;;;;;773.15;724.70;;;;;;;16.35;100.00;101409.34;10495503;28;20362;-70
2023/09/17 00:07:20;;;;;;;799.03;746.85;;;;;;;16.34;100.00;101415.06;10496646;28;20444;-70
2023/09/17 00:12:21;;;;;;;817.95;763.90;;;;;;;16.18;100.00;101416.44;10478064;28;20024;-70
2023/09/17 00:17:21;;;;;;;894.03;834.17;;;;;;;16.25;100.00;101403.56;10478860;28;20036;-70
2023/09/17 00:22:22;;;;;;;922.63;859.83;;;;;;;16.31;100.00;101399.94;10461088;28;20115;-70
2023/09/17 00:27:22;;;;;;;921.58;859.20;;;;;;;16.31;100.00;101391.72;10478498;28;20028;-70
2023/09/17 00:32:23;;;;;;;892.58;832.83;;;;;;;16.31;100.00;101385.44;10477795;28;20040;-70
2023/09/17 00:37:23;;;;;;;916.05;854.15;;;;;;;16.22;100.00;101380.22;10494324;28;20035;-70
2023/09/17 00:42:24;;;;;;;916.88;854.67;;;;;;;16.14;100.00;101377.75;10494852;28;20033;-70
2023/09/17 00:47:24;;;;;;;911.05;849.45;;;;;;;16.15;100.00;101386.81;10459635;28;20025;-70
2023/09/17 00:52:25;;;;;;;885.47;826.13;;;;;;;16.09;100.00;101377.63;10460944;28;20332;-70
2023/09/17 00:57:25;;;;;;;910.33;849.20;;;;;;;16.01;100.00;101378.72;10494783;28;20456;-70
2023/09/17 01:02:27;;;;;;;909.40;848.30;;;;;;;16.00;100.00;101362.56;10476507;28;20059;-70
2023/09/17 01:07:28;;;;;;;852.40;796.05;;;;;;;15.86;100.00;101370.03;10495014;28;20025;-70
2023/09/17 01:12:28;;;;;;;910.78;849.25;;;;;;;15.86;100.00;101360.97;10476321;28;20535;-70
2023/09/17 01:17:30;;;;;;;907.30;845.92;;;;;;;15.88;100.00;101351.50;10477259;28;20345;-70
2023/09/17 01:22:34;;;;;;;911.50;849.83;;;;;;;15.82;100.00;101352.38;10476138;28;20029;-70
2023/09/17 01:27:41;;;;;;;887.40;828.28;;;;;;;15.85;100.00;101349.22;10492750;28;20349;-71
2023/09/17 01:32:42;;;;;;;897.97;837.73;;;;;;;15.91;100.00;101351.06;10494478;28;20071;-70
2023/09/17 01:37:50;;;;;;;899.88;839.60;;;;;;;16.00;100.00;101337.97;10477061;28;20037;-70
2023/09/17 01:42:51;;;;;;;894.15;834.45;;;;;;;16.03;100.00;101340.25;10493466;28;20086;-70
2023/09/17 01:47:51;;;;;;;932.88;868.63;;;;;;;16.08;100.00;101336.84;10448525;28;20032;-70
2023/09/17 01:52:52;;;;;;;908.75;847.80;;;;;;;16.10;100.00;101335.56;10484218;28;20438;-70
2023/09/17 01:57:52;;;;;;;879.67;821.20;;;;;;;16.18;100.00;101329.00;10482792;28;20048;-70
2023/09/17 02:02:53;;;;;;;880.28;821.40;;;;;;;16.26;100.00;101325.97;10483307;28;20131;-70
2023/09/17 02:07:54;;;;;;;899.80;839.70;;;;;;;16.38;100.00;101326.06;10482761;28;20454;-70
2023/09/17 02:12:54;;;;;;;882.10;823.00;;;;;;;16.39;100.00;101316.78;10500475;28;20035;-70
2023/09/17 02:17:55;;;;;;;877.53;819.25;;;;;;;16.36;100.00;101336.38;10500276;28;20386;-74
2023/09/17 02:22:55;;;;;;;826.97;773.08;;;;;;;16.30;100.00;101338.09;10502128;28;20025;-74
2023/09/17 02:27:56;;;;;;;871.50;813.72;;;;;;;16.34;100.00;101328.41;10466415;28;20115;-74
2023/09/17 02:32:57;;;;;;;880.65;822.00;;;;;;;16.42;100.00;101319.09;10500882;28;20043;-74
2023/09/17 02:37:57;;;;;;;859.42;802.28;;;;;;;16.39;100.00;101322.25;10500672;28;20456;-73
2023/09/17 02:42:58;;;;;;;856.85;800.42;;;;;;;16.40;100.00;101318.47;10466567;28;20482;-73
2023/09/17 02:47:59;;;;;;;892.72;833.25;;;;;;;16.41;100.00;101322.88;10483731;28;20517;-73
2023/09/17 02:52:59;;;;;;;901.85;840.88;;;;;;;16.37;100.00;101325.25;10467253;28;20029;-73
2023/09/17 02:58:03;;;;;;;882.70;824.42;;;;;;;16.38;100.00;101326.91;10500014;28;20032;-73
2023/09/17 03:03:07;;;;;;;875.35;817.33;;;;;;;16.36;100.00;101317.25;10466164;28;20040;-73
2023/09/17 03:08:09;;;;;;;854.25;798.03;;;;;;;16.35;100.00;101316.41;10464865;28;20035;-73
2023/09/17 03:13:10;;;;;;;853.08;796.90;;;;;;;16.41;100.00;101314.69;10499784;28;20115;-73
2023/09/17 03:18:11;;;;;;;846.85;791.45;;;;;;;16.48;100.00;101308.06;10499058;28;20032;-73
2023/09/17 03:23:15;;;;;;;859.95;802.90;;;;;;;16.50;100.00;101297.75;10464256;28;20119;-73
2023/09/17 03:28:15;;;;;;;824.55;770.95;;;;;;;16.56;100.00;101303.38;10481047;28;20024;-73
2023/09/17 03:33:16;;;;;;;773.67;724.75;;;;;;;16.54;100.00;101319.19;10480502;28;20418;-72
2023/09/17 03:38:23;;;;;;;831.42;776.47;;;;;;;16.51;100.00;101312.25;10481532;28;20099;-72
2023/09/17 03:43:24;;;;;;;919.55;856.15;;;;;;;16.51;100.00;101312.25;10480726;28;20033;-72
2023/09/17 03:48:32;;;;;;;875.83;817.40;;;;;;;16.52;100.00;101311.19;10482182;28;20039;-72
2023/09/17 03:53:32;;;;;;;822.60;768.55;;;;;;;16.56;100.00;101327.97;10480089;28;20036;-72
2023/09/17 03:58:33;;;;;;;885.58;826.47;;;;;;;16.58;100.00;101312.19;10462970;28;20030;-72
2023/09/17 04:03:34;;;;;;;802.10;750.55;;;;;;;16.62;100.00;101307.91;10462746;28;20048;-71
2023/09/17 04:08:35;;;;;;;900.20;839.28;;;;;;;16.59;100.00;101308.38;10463192;28;20356;-71
2023/09/17 04:13:35;;;;;;;832.75;778.28;;;;;;;16.64;100.00;101303.06;10496132;28;20028;-71
2023/09/17 04:18:36;;;;;;;825.90;772.15;;;;;;;16.66;100.00;101301.78;10496730;28;20067;-71
2023/09/17 04:23:37;;;;;;;811.97;759.35;;;;;;;16.65;100.00;101308.28;10496486;28;20024;-71
2023/09/17 04:28:37;;;;;;;801.33;749.38;;;;;;;16.71;100.00;101309.28;10478641;28;20408;-71
2023/09/17 04:33:38;;;;;;;809.30;756.60;;;;;;;16.72;100.00;101303.63;10478867;28;20033;-71
2023/09/17 04:38:38;;;;;;;801.42;749.53;;;;;;;16.77;100.00;101311.16;10477590;28;20086;-71
2023/09/17 04:43:39;;;;;;;814.53;761.25;;;;;;;16.74;100.00;101306.94;10496376;28;20028;-71
2023/09/17 04:48:39;;;;;;;811.35;758.42;;;;;;;16.77;100.00;101310.31;10477347;28;20029;-70
2023/09/17 04:53:40;;;;;;;837.03;782.63;;;;;;;16.84;100.00;101300.13;10477217;28;20075;-70
2023/09/17 04:58:40;;;;;;;843.05;787.53;;;;;;;16.87;100.00;101305.97;10495351;28;20028;-70
2023/09/17 05:03:42;;;;;;;826.40;772.55;;;;;;;16.87;100.00;101303.22;10495944;28;20052;-70
2023/09/17 05:08:42;;;;;;;800.83;749.72;;;;;;;16.84;100.00;101300.94;10495383;28;20063;-70
2023/09/17 05:13:43;;;;;;;749.42;702.75;;;;;;;16.80;100.00;101307.97;10495252;28;20080;-70
2023/09/17 05:18:44;;;;;;;836.83;782.08;;;;;;;16.72;100.00;101302.78;10460098;28;20452;-71
2023/09/17 05:23:44;;;;;;;808.67;756.13;;;;;;;16.73;100.00;101309.91;10500903;28;20025;-70
2023/09/17 05:28:45;;;;;;;816.22;763.03;;;;;;;16.72;100.00;101302.78;10502563;28;20135;-70
2023/09/17 05:33:46;;;;;;;805.53;753.00;;;;;;;16.66;100.00;101303.69;10485683;28;20096;-70
2023/09/17 05:38:46;;;;;;;766.78;718.20;;;;;;;16.51;100.00;101309.53;10503041;28;20035;-70
2023/09/17 05:43:47;;;;;;;800.67;749.42;;;;;;;16.50;100.00;101308.69;10502623;28;20113;-70
2023/09/17 05:48:48;;;;;;;746.53;699.65;;;;;;;16.60;100.00;101310.91;10484908;28;20094;-70
2023/09/17 05:53:49;;;;;;;790.60;740.15;;;;;;;16.62;100.00;101302.44;10484381;28;20041;-70
2023/09/17 05:58:49;;;;;;;810.58;757.45;;;;;;;16.63;100.00;101299.50;10467226;28;20039;-70
2023/09/17 06:03:50;;;;;;;847.50;792.10;;;;;;;16.68;100.00;101301.53;10501560;28;20055;-70
2023/09/17 06:08:52;;;;;;;817.58;764.30;;;;;;;16.79;100.00;101303.56;10466938;28;20173;-70
2023/09/17 06:13:52;;;;;;;761.75;713.85;;;;;;;16.85;100.00;101288.97;10484568;28;20107;-70
2023/09/17 06:18:54;;;;;;;803.38;751.55;;;;;;;16.94;100.00;101292.22;10501423;28;20396;-70
2023/09/17 06:23:55;;;;;;;805.22;753.33;;;;;;;16.94;100.00;101294.94;10483486;28;20031;-70
2023/09/17 06:28:55;;;;;;;841.60;786.10;;;;;;;17.11;100.00;101289.69;10465900;28;20498;-70
2023/09/17 06:33:56;;;;;;;822.13;768.75;;;;;;;17.24;100.00;101284.03;10499292;28;20166;-70
2023/09/17 06:38:56;;;;;;;753.42;706.63;;;;;;;17.30;100.00;101276.78;10500704;28;20029;-70
2023/09/17 06:43:57;;;;;;;811.17;759.00;;;;;;;17.34;100.00;101284.28;10500655;28;20059;-70
2023/09/17 06:48:57;;;;;;;835.58;775.90;;;;;;;17.35;100.00;101275.00;10465632;28;20075;-70
2023/09/17 06:53:58;;;;;;;729.17;685.47;;;;;;;17.24;100.00;101280.47;10465385;28;20064;-70
2023/09/17 06:58:58;;;;;;;796.00;745.22;;;;;;;17.13;100.00;101290.28;10499830;28;20028;-70
2023/09/17 07:03:58;;;;;;;875.20;816.70;;;;;;;17.09;100.00;101292.63;10481243;28;20075;-70
2023/09/17 07:08:59;;;;;;;796.47;745.63;;;;;;;17.10;100.00;101298.94;10499243;28;20032;-70
2023/09/17 07:14:02;;;;;;;818.15;764.92;;;;;;;16.49;100.00;101311.63;10481099;28;20024;-70
2023/09/17 07:19:04;;;;;;;712.65;670.35;;;;;;;15.98;100.00;101316.31;10481306;28;20138;-70
2023/09/17 07:24:05;;;;;;;973.70;899.67;;;;;;;15.70;100.00;101338.63;10500078;28;20033;-70
2023/09/17 07:29:05;;;;;;;835.85;780.10;;;;;;;15.38;100.00;101326.84;10463497;28;20444;-70
2023/09/17 07:34:05;;;;;;;858.92;802.15;;;;;;;15.42;100.00;101328.06;10480168;28;20090;-70
2023/09/17 07:39:06;;;;;;;888.33;828.47;;;;;;;15.46;100.00;101321.09;10497500;28;20081;-70
2023/09/17 07:44:07;;;;;;;892.42;831.70;;;;;;;15.44;100.00;101315.00;10480017;28;20492;-70
2023/09/17 07:49:07;;;;;;;868.80;810.65;;;;;;;15.39;100.00;101306.66;10498044;28;20407;-69
2023/09/17 07:54:09;;;;;;;845.08;789.03;;;;;;;15.39;100.00;101314.03;10498202;28;20153;-70
2023/09/17 07:59:09;;;;;;;809.80;756.90;;;;;;;15.46;100.00;101307.44;10479817;28;20103;-71
2023/09/17 08:04:11;;;;;;;743.20;696.53;;;;;;;15.45;100.00;101322.16;10497263;28;20080;-71
2023/09/17 08:09:15;;;;;;;638.55;601.78;;;;;;;15.33;100.00;101324.75;10497685;28;20464;-73
2023/09/17 08:14:15;;;;;;;537.67;509.65;;;;;;;15.39;100.00;101309.41;10496708;28;20036;-73
2023/09/17 08:19:18;;;;;;;422.42;401.85;;;;;;;15.54;100.00;101296.28;10463525;28;20332;-73
2023/09/17 08:24:23;;;;;;;266.67;253.93;;;;;;;15.58;100.00;101294.78;10479935;28;20032;-73
2023/09/17 08:29:24;;;;;;;162.98;154.75;;;;;;;15.63;100.00;101293.25;10496991;28;20120;-73
2023/09/17 08:34:24;;;;;;;120.28;113.50;;;;;;;15.81;100.00;101307.84;10498166;28;20035;-73
2023/09/17 08:39:25;;;;;;;275.40;254.05;;;;;;;15.91;100.00;101307.34;10496866;28;20036;-73
2023/09/17 08:44:29;;;;;;;138.80;130.20;;;;;;;15.84;100.00;101301.13;10461235;28;20052;-73
2023/09/17 08:49:29;;;;;;;167.45;158.48;;;;;;;15.90;100.00;101310.31;10477865;28;20024;-74
2023/09/17 08:54:51;;;;;;;133.55;125.47;;;;;;;15.91;100.00;101312.81;10478277;28;20036;-73
2023/09/17 09:00:08;;;;;;;215.50;205.55;;;;;;;15.72;100.00;101320.09;10479573;28;20083;-73
2023/09/17 09:05:08;;;;;;;179.63;170.35;;;;;;;15.72;100.00;101331.03;10463773;28;20052;-73
2023/09/17 09:10:09;;;;;;;160.70;152.57;;;;;;;15.73;100.00;101331.84;10477525;28;20036;-72
2023/09/17 09:15:10;;;;;;;211.50;200.98;;;;;;;15.61;100.00;101323.53;10477469;28;20041;-73
2023/09/17 09:20:11;;;;;;;272.95;259.73;;;;;;;15.70;100.00;101318.69;10477506;28;20036;-72
2023/09/17 09:25:15;;;;;;;584.97;548.20;;;;;;;15.84;100.00;101320.25;10495721;28;20110;-73
2023/09/17 09:30:18;;;;;;;425.20;404.05;;;;;;;16.09;100.00;101317.50;10445040;28;20025;-73
2023/09/17 09:35:18;;;;;;;450.77;428.80;;;;;;;16.17;100.00;101328.13;10460685;28;20051;-74
2023/09/17 09:40:19;;;;;;;443.38;421.77;;;;;;;16.26;100.00;101324.06;10460402;28;20094;-72
2023/09/17 09:45:19;;;;;;;594.38;560.08;;;;;;;16.43;100.00;101301.59;10461254;28;20135;-72
2023/09/17 09:50:21;;;;;;;406.63;386.48;;;;;;;16.61;100.00;101285.22;10494518;28;20032;-73
2023/09/17 09:55:23;;;;;;;635.88;597.50;;;;;;;16.67;100.00;101288.94;10476683;28;20540;-73
2023/09/17 10:00:26;;;;;;;349.08;331.25;;;;;;;16.82;100.00;101278.50;10476826;28;20040;-73
2023/09/17 10:05:33;;;;;;;505.33;476.33;;;;;;;16.73;100.00;101268.88;10451917;28;20049;-73
2023/09/17 10:10:37;;;;;;;350.38;333.73;;;;;;;16.87;100.00;101264.09;10457906;28;20112;-73
2023/09/17 10:15:40;;;;;;;351.65;334.15;;;;;;;16.99;100.00;101258.69;10459468;28;20033;-73
2023/09/17 10:20:42;;;;;;;381.63;363.08;;;;;;;16.86;100.00;101267.91;10442466;28;20120;-73
2023/09/17 10:25:42;;;;;;;370.80;353.42;;;;;;;16.94;100.00;101253.91;10457983;28;20391;-72
2023/09/17 10:30:46;;;;;;;412.40;388.00;;;;;;;16.86;100.00;101257.81;10459083;28;20104;-73
2023/09/17 10:35:46;;;;;;;443.20;418.95;;;;;;;16.89;100.00;101257.34;10426622;28;20041;-72
2023/09/17 10:40:47;;;;;;;278.55;261.70;;;;;;;16.99;100.00;101250.50;10426478;28;20029;-72
2023/09/17 10:45:47;;;;;;;315.63;295.42;;;;;;;16.94;100.00;101257.50;10425521;28;20041;-73
2023/09/17 10:50:48;;;;;;;342.92;321.00;;;;;;;17.16;100.00;101240.56;10457372;28;20048;-73
2023/09/17 10:55:53;;;;;;;357.83;335.77;;;;;;;17.20;100.00;101239.03;10424869;28;20063;-73
2023/09/17 11:00:53;;;;;;;205.75;194.48;;;;;;;17.35;100.00;101246.81;10440735;28;20040;-73
2023/09/17 11:05:54;;;;;;;123.78;116.88;;;;;;;17.49;100.00;101239.22;10432528;28;20072;-72
2023/09/17 11:10:54;;;;;;;235.45;222.02;;;;;;;17.44;100.00;101239.91;10416713;28;20082;-72
2023/09/17 11:15:56;;;;;;;287.05;265.52;;;;;;;17.75;100.00;101243.44;10398937;28;20373;-72
2023/09/17 11:21:06;;;;;;;243.75;228.20;;;;;;;17.65;100.00;101244.03;10413756;28;20147;-71
2023/09/17 11:26:07;;;;;;;129.77;122.22;;;;;;;17.75;100.00;101241.53;10415759;28;20564;-71
2023/09/17 11:31:14;;;;;;;187.57;176.32;;;;;;;17.87;100.00;101230.63;10414938;28;20048;-72
2023/09/17 11:36:15;;;;;;;110.40;103.90;;;;;;;17.95;100.00;101232.16;10415254;28;20365;-71
2023/09/17 11:41:17;;;;;;;147.88;138.02;;;;;;;17.88;100.00;101235.00;10398486;28;20040;-72
2023/09/17 11:46:17;;;;;;;73.20;68.40;;;;;;;17.86;100.00;101243.44;10414359;28;20033;-71
2023/09/17 11:51:27;;;;;;;66.93;62.72;;;;;;;18.02;100.00;101252.88;10413151;28;20120;-71
2023/09/17 11:56:29;;;;;;;88.60;82.70;;;;;;;18.09;100.00;101263.72;10413807;28;20259;-72
2023/09/17 12:01:57;;;;;;;103.00;97.20;;;;;;;18.03;100.00;101264.69;10415171;28;20029;-71
2023/09/17 12:06:58;;;;;;;62.95;58.50;;;;;;;18.02;100.00;101265.75;10448692;28;20045;-70
2023/09/17 12:11:58;;;;;;;113.68;106.90;;;;;;;17.94;100.00;101275.16;10437248;28;20041;-72
2023/09/17 12:16:59;;;;;;;78.00;73.00;;;;;;;18.09;100.00;101274.66;10454312;28;20052;-71
2023/09/17 12:22:00;;;;;;;82.40;76.38;;;;;;;18.26;100.00;101270.16;10454038;28;20029;-71
2023/09/17 12:32:08;;;;;;;98.22;92.65;;;;;;;18.39;100.00;101252.63;10453814;28;20044;-70
2023/09/17 12:37:11;;;;;;;127.20;120.18;;;;;;;18.47;100.00;101248.66;10452727;28;20127;-70
2023/09/17 12:42:12;;;;;;;104.82;99.30;;;;;;;18.66;100.00;101230.94;10437659;28;20040;-70
2023/09/17 12:47:13;;;;;;;140.57;133.02;;;;;;;18.65;100.00;101231.22;10452567;28;20467;-70
2023/09/17 12:52:13;;;;;;;155.43;147.23;;;;;;;18.70;100.00;101232.16;10436629;28;20103;-70
2023/09/17 12:57:14;;;;;;;164.60;156.07;;;;;;;18.57;100.00;101226.94;10435909;28;20112;-70
2023/09/17 13:02:14;;;;;;;174.68;164.65;;;;;;;18.43;100.00;101220.06;10436297;28;20098;-70
2023/09/17 13:07:15;;;;;;;228.65;217.30;;;;;;;18.67;100.00;101213.44;10451995;28;20106;-70
2023/09/17 13:12:22;;;;;;;200.48;189.63;;;;;;;18.85;100.00;101209.69;10452500;28;20086;-70
2023/09/17 13:17:23;;;;;;;275.65;261.55;;;;;;;18.90;100.00;101200.72;10453249;28;20433;-70
2023/09/17 13:22:24;;;;;;;274.65;261.10;;;;;;;19.00;100.00;101192.69;10451420;28;20021;-71
2023/09/17 13:27:24;;;;;;;355.80;338.52;;;;;;;19.10;100.00;101187.38;10452403;28;20380;-71
2023/09/17 13:32:25;;;;;;;319.83;303.20;;;;;;;19.45;100.00;101189.06;10452408;28;20056;-70
2023/09/17 13:37:25;;;;;;;414.63;393.95;;;;;;;19.76;100.00;101187.69;10451429;28;20048;-71
2023/09/17 13:42:28;;;;;;;704.88;660.90;;;;;;;19.81;100.00;101184.16;10454160;28;20033;-71
2023/09/17 13:47:29;;;;;;;754.90;707.22;;;;;;;19.84;100.00;101183.66;10444054;28;20032;-71
2023/09/17 13:52:29;;;;;;;812.83;759.35;;;;;;;19.74;100.00;101182.41;10443253;28;20040;-71
2023/09/17 13:57:29;;;;;;;831.55;776.63;;;;;;;19.47;100.00;101179.50;10459179;28;20036;-71
2023/09/17 14:02:30;;;;;;;832.78;778.50;;;;;;;19.49;100.00;101168.25;10459981;28;20137;-71
2023/09/17 14:07:32;;;;;;;850.20;794.08;;;;;;;19.50;100.00;101169.94;10501874;28;20135;-71
2023/09/17 14:12:32;;;;;;;844.95;789.55;;;;;;;19.42;100.00;101173.91;10484460;28;20392;-71
2023/09/17 14:17:33;;;;;;;856.25;799.65;;;;;;;19.42;100.00;101157.44;10499675;28;20044;-71
2023/09/17 14:22:33;;;;;;;861.40;804.15;;;;;;;19.50;100.00;101147.97;10501400;28;20055;-72
2023/09/17 14:27:35;;;;;;;862.78;805.45;;;;;;;19.51;100.00;101149.63;10500411;28;20127;-72
2023/09/17 14:32:35;;;;;;;862.28;805.45;;;;;;;19.57;100.00;101139.56;10466249;28;20035;-71
2023/09/17 14:37:36;;;;;;;866.15;808.80;;;;;;;19.78;100.00;101133.28;10482792;28;20032;-71
2023/09/17 14:42:36;;;;;;;860.45;802.78;;;;;;;19.90;100.00;101135.94;10500217;28;20044;-70
2023/09/17 14:47:38;;;;;;;880.58;821.40;;;;;;;19.79;100.00;101137.72;10466345;28;20158;-70
2023/09/17 14:52:39;;;;;;;866.13;808.75;;;;;;;19.67;100.00;101126.81;10481936;28;20044;-70
2023/09/17 14:57:40;;;;;;;867.40;809.33;;;;;;;19.76;100.00;101120.91;10480725;28;20036;-70
2023/09/17 15:02:41;;;;;;;877.92;819.10;;;;;;;19.83;100.00;101113.28;10465164;28;20060;-70
2023/09/17 15:07:42;;;;;;;875.35;816.80;;;;;;;19.69;100.00;101094.44;10465180;28;20036;-70
2023/09/17 15:12:43;;;;;;;870.20;811.95;;;;;;;19.58;100.00;101111.81;10498729;28;20027;-70
2023/09/17 15:17:43;;;;;;;863.78;806.30;;;;;;;19.70;100.00;101126.31;10481300;28;20033;-70
2023/09/17 15:22:44;;;;;;;867.35;809.95;;;;;;;19.62;100.00;101128.63;10481457;28;20071;-70
2023/09/17 15:27:44;;;;;;;861.95;804.63;;;;;;;19.59;100.00;101140.97;10479758;28;20032;-70
2023/09/17 15:32:48;;;;;;;873.00;814.72;;;;;;;19.50;100.00;101136.97;10463942;28;20507;-70
2023/09/17 15:37:48;;;;;;;860.63;803.13;;;;;;;19.43;100.00;101148.13;10498446;28;20043;-70
2023/09/17 15:42:48;;;;;;;860.90;803.72;;;;;;;19.31;100.00;101143.81;10481075;28;20047;-70
2023/09/17 15:47:49;;;;;;;878.72;819.80;;;;;;;19.29;100.00;101141.31;10497204;28;20113;-70
2023/09/17 15:52:50;;;;;;;883.70;824.97;;;;;;;19.36;100.00;101144.69;10480112;28;20072;-70
2023/09/17 15:57:50;;;;;;;856.53;800.35;;;;;;;19.48;100.00;101123.47;10498550;28;20050;-70
2023/09/17 16:02:51;;;;;;;859.42;802.40;;;;;;;19.46;100.00;101125.66;10479527;28;20403;-70
2023/09/17 16:07:51;;;;;;;846.25;790.38;;;;;;;19.43;100.00;101119.81;10497075;28;20059;-70
2023/09/17 16:12:52;;;;;;;845.97;790.42;;;;;;;19.52;100.00;101116.38;10496923;28;20036;-70
2023/09/17 16:17:53;;;;;;;856.78;800.55;;;;;;;19.63;100.00;101117.38;10478828;28;20651;-70
2023/09/17 16:22:53;;;;;;;849.85;793.60;;;;;;;19.70;100.00;101120.00;10479820;28;20063;-70
2023/09/17 16:27:54;;;;;;;852.78;796.65;;;;;;;19.53;100.00;101103.50;10461625;28;20105;-70
2023/09/17 16:32:54;;;;;;;850.92;794.72;;;;;;;19.51;100.00;101095.50;10496127;28;20045;-70
2023/09/17 16:37:55;;;;;;;813.45;760.70;;;;;;;19.47;100.00;101088.88;10477924;28;20069;-70
2023/09/17 16:42:56;;;;;;;812.53;759.92;;;;;;;19.44;100.00;101066.56;10461498;28;20127;-70
2023/09/17 16:47:56;;;;;;;787.47;736.40;;;;;;;19.33;100.00;101075.72;10462594;28;20105;-70
2023/09/17 16:52:56;;;;;;;813.92;760.92;;;;;;;19.27;100.00;101061.94;10461284;28;20448;-70
2023/09/17 16:57:57;;;;;;;772.45;722.22;;;;;;;19.17;100.00;101047.19;10477754;28;20425;-70
2023/09/17 17:02:57;;;;;;;764.47;715.60;;;;;;;19.08;100.00;101051.44;10494695;28;20090;-70
2023/09/17 17:07:58;;;;;;;766.03;717.63;;;;;;;18.97;100.00;101032.09;10461855;28;20037;-70
2023/09/17 17:12:58;;;;;;;749.13;701.92;;;;;;;18.94;100.00;101037.25;10477372;28;20062;-70
2023/09/17 17:18:00;;;;;;;707.85;663.33;;;;;;;18.89;100.00;101039.91;10497916;28;20032;-70
2023/09/17 17:23:00;;;;;;;623.95;587.55;;;;;;;18.81;100.00;101047.47;10503590;28;20330;-70
2023/09/17 17:28:01;;;;;;;574.50;542.20;;;;;;;18.75;100.00;101056.69;10485287;28;20072;-70
2023/09/17 17:33:01;;;;;;;542.20;512.50;;;;;;;18.66;100.00;101069.09;10485329;28;20049;-70
2023/09/17 17:38:02;;;;;;;475.77;450.98;;;;;;;18.53;100.00;101042.81;10484840;28;20043;-70
2023/09/17 17:43:03;;;;;;;216.48;204.85;;;;;;;18.46;100.00;101011.16;10451381;28;20044;-70
2023/09/17 17:48:04;;;;;;;200.23;189.50;;;;;;;18.34;100.00;101028.50;10503501;28;20036;-70
2023/09/17 17:53:06;;;;;;;273.63;259.48;;;;;;;18.29;100.00;101017.47;10484616;28;20029;-70
2023/09/17 17:58:06;;;;;;;337.17;319.90;;;;;;;18.18;100.00;101009.28;10502236;28;20037;-70
2023/09/17 18:03:07;;;;;;;394.40;374.38;;;;;;;18.07;100.00;101002.78;10502068;28;20060;-70
2023/09/17 18:08:07;;;;;;;422.58;401.23;;;;;;;18.01;100.00;101004.59;10501242;28;20035;-70
2023/09/17 18:13:08;;;;;;;459.85;436.00;;;;;;;17.95;100.00;101021.16;10467065;28;20044;-70
2023/09/17 18:18:08;;;;;;;517.80;489.23;;;;;;;17.91;100.00;101023.56;10501643;28;20099;-70
2023/09/17 18:23:08;;;;;;;602.80;568.45;;;;;;;17.86;100.00;101035.25;10502055;28;20043;-70
2023/09/17 18:28:09;;;;;;;639.40;601.47;;;;;;;17.85;100.00;101033.59;10498645;28;20376;-70
2023/09/17 18:33:09;;;;;;;656.00;616.50;;;;;;;17.87;100.00;101009.53;10466384;28;20025;-70
2023/09/17 18:38:10;;;;;;;729.90;683.03;;;;;;;17.89;100.00;100982.69;10501937;28;20456;-70
2023/09/17 18:43:10;;;;;;;809.17;755.60;;;;;;;17.81;100.00;100972.16;10482748;28;20391;-70
2023/09/17 18:48:11;;;;;;;812.70;758.70;;;;;;;17.77;100.00;100970.97;10481885;28;20036;-70
2023/09/17 18:53:12;;;;;;;862.28;803.60;;;;;;;17.76;100.00;100974.75;10481440;28;20145;-70
2023/09/17 18:58:12;;;;;;;900.45;838.17;;;;;;;17.79;100.00;100978.94;10499238;28;20044;-70
2023/09/17 19:03:13;;;;;;;892.95;831.58;;;;;;;17.75;100.00;100956.66;10481231;28;20049;-70
2023/09/17 19:08:13;;;;;;;874.72;814.42;;;;;;;17.74;100.00;100932.22;10481003;28;20033;-70
2023/09/17 19:13:14;;;;;;;920.08;855.40;;;;;;;17.73;100.00;100936.88;10498972;28;20123;-70
2023/09/17 19:18:16;;;;;;;882.67;822.60;;;;;;;17.71;100.00;100928.09;10499027;28;20391;-70
2023/09/17 19:23:17;;;;;;;896.97;834.60;;;;;;;17.72;100.00;100928.94;10481342;28;20031;-70
2023/09/17 19:28:17;;;;;;;881.53;819.70;;;;;;;17.75;100.00;100937.47;10498805;28;20478;-70
2023/09/17 19:33:18;;;;;;;913.35;850.25;;;;;;;17.72;100.00;100945.34;10497130;28;20148;-70
2023/09/17 19:38:18;;;;;;;889.88;828.58;;;;;;;17.73;100.00;100942.38;10480887;28;20036;-70
2023/09/17 19:43:20;;;;;;;921.13;856.85;;;;;;;17.73;100.00;100931.41;10498125;28;20138;-70
2023/09/17 19:48:21;;;;;;;910.40;846.40;;;;;;;17.69;100.00;100907.50;10446962;28;20093;-70
2023/09/17 19:53:22;;;;;;;896.30;834.28;;;;;;;17.65;100.00;100905.25;10479334;28;20590;-70
2023/09/17 19:58:23;;;;;;;926.58;861.03;;;;;;;17.63;100.00;100903.81;10497651;28;20328;-70
2023/09/17 20:03:23;;;;;;;903.42;839.25;;;;;;;17.65;100.00;100885.25;10479686;28;20052;-70
2023/09/17 20:08:24;;;;;;;908.00;843.78;;;;;;;17.69;100.00;100891.91;10462971;28;20037;-70
2023/09/17 20:13:24;;;;;;;929.20;864.05;;;;;;;17.71;100.00;100902.59;10462554;28;20032;-70
2023/09/17 20:18:26;;;;;;;925.85;859.90;;;;;;;17.72;100.00;100907.00;10479026;28;20491;-70
2023/09/17 20:23:29;;;;;;;910.55;846.25;;;;;;;17.77;100.00;100915.34;10478675;28;20126;-70
2023/09/17 20:28:29;;;;;;;913.42;848.97;;;;;;;17.78;100.00;100912.38;10478823;28;20111;-70
2023/09/17 20:33:29;;;;;;;917.20;852.85;;;;;;;17.78;100.00;100906.06;10478409;28;20033;-70
2023/09/17 20:38:30;;;;;;;944.50;877.38;;;;;;;17.81;100.00;100911.06;10496089;28;20029;-69
2023/09/17 20:43:30;;;;;;;921.45;857.33;;;;;;;17.89;100.00;100902.44;10477420;28;20089;-69
2023/09/17 20:48:31;;;;;;;918.40;854.03;;;;;;;17.92;100.00;100912.06;10496373;28;20119;-69
2023/09/17 20:53:32;;;;;;;946.10;878.75;;;;;;;17.88;100.00;100901.59;10476426;28;20075;-69
2023/09/17 20:58:34;;;;;;;935.85;870.17;;;;;;;17.92;100.00;100887.41;10477305;28;20040;-69
2023/09/17 21:03:35;;;;;;;969.10;897.33;;;;;;;17.88;100.00;100882.41;10461615;28;20127;-69
2023/09/17 21:08:35;;;;;;;937.22;870.13;;;;;;;17.93;100.00;100881.66;10494825;28;20028;-69
2023/09/17 21:13:36;;;;;;;946.00;878.95;;;;;;;17.92;100.00;100871.81;10495458;28;20040;-69
2023/09/17 21:18:36;;;;;;;976.30;906.17;;;;;;;17.92;100.00;100873.72;10495011;28;20033;-69
2023/09/17 21:23:38;;;;;;;937.80;871.75;;;;;;;17.95;100.00;100859.53;10460457;28;20041;-69
2023/09/17 21:28:40;;;;;;;931.95;866.30;;;;;;;18.01;100.00;100847.56;10494833;28;20036;-69
2023/09/17 21:33:41;;;;;;;935.40;869.40;;;;;;;17.99;100.00;100831.38;10494076;28;20055;-68
2023/09/17 21:38:42;;;;;;;806.40;752.10;;;;;;;17.98;100.00;100826.16;10477389;28;20127;-68
2023/09/17 21:43:42;;;;;;;816.25;761.28;;;;;;;17.98;100.00;100816.00;10476171;28;20040;-69
2023/09/17 21:48:43;;;;;;;786.35;733.28;;;;;;;18.01;100.00;100801.81;10494401;28;20024;-69
2023/09/17 21:53:44;;;;;;;786.67;733.83;;;;;;;18.01;100.00;100790.03;10494607;28;20223;-69